Time;durP1;ratioP1;P1;durP2;ratioP2;P2;SDS_P1;SDS_P2;PMS_P1;PMS_P2;Temp;Humidity;BMP_temperature;BMP_pressure;BME280_temperature;BME280_humidity;BME280_pressure;Samples;Min_cycle;Max_cycle;Signal;HPM_P1;HPM_P2
2022/09/07 00:01:06;;;;;;;3.28;1.85;;;;;;;12.88;85.28;97439.00;5046283;28;20377;-72
2022/09/07 00:03:33;;;;;;;4.05;2.15;;;;;;;13.17;85.59;97496.66;5046300;28;20059;-72
2022/09/07 00:06:05;;;;;;;4.47;2.08;;;;;;;13.36;86.28;97571.66;5046431;28;20053;-69
2022/09/07 00:08:32;;;;;;;3.28;1.90;;;;;;;13.51;85.27;97553.97;5046661;28;20068;-71
2022/09/07 00:11:01;;;;;;;3.63;2.65;;;;;;;13.44;85.60;97558.66;5046844;28;20075;-72
2022/09/07 00:13:31;;;;;;;4.90;1.98;;;;;;;13.39;86.33;97557.00;5046392;28;20061;-72
2022/09/07 00:15:58;;;;;;;3.45;2.22;;;;;;;13.43;85.74;97549.53;5046198;28;20060;-72
2022/09/07 00:18:24;;;;;;;2.50;1.80;;;;;;;12.97;86.00;97500.72;5046174;28;20059;-71
2022/09/07 00:21:04;;;;;;;5.35;2.40;;;;;;;13.05;86.38;97533.06;5045174;28;20155;-72
2022/09/07 00:23:33;;;;;;;3.53;2.03;;;;;;;12.79;87.06;97494.06;5044806;28;20463;-72
2022/09/07 00:26:05;;;;;;;2.88;2.10;;;;;;;12.74;87.02;97491.59;5045913;28;20412;-72
2022/09/07 00:28:33;;;;;;;3.60;2.00;;;;;;;13.22;87.23;97556.75;5045981;28;20049;-72
2022/09/07 00:30:59;;;;;;;4.57;2.35;;;;;;;13.16;87.03;97553.50;5046013;28;20048;-72
2022/09/07 00:33:27;;;;;;;5.63;2.15;;;;;;;10.86;87.07;97215.94;5044390;28;20112;-72
2022/09/07 00:35:54;;;;;;;2.78;2.10;;;;;;;12.75;89.44;97554.38;5045830;28;20049;-72
2022/09/07 00:38:21;;;;;;;4.07;2.40;;;;;;;12.79;88.86;97555.25;5045900;28;20048;-71
2022/09/07 00:40:47;;;;;;;3.63;2.47;;;;;;;12.87;88.49;97550.59;5045727;28;20450;-72
2022/09/07 00:43:29;;;;;;;3.45;2.00;;;;;;;13.10;87.69;97559.75;5045507;28;20053;-72
2022/09/07 00:45:55;;;;;;;4.40;2.00;;;;;;;13.10;87.77;97559.75;5045403;28;20060;-71
2022/09/07 00:48:30;;;;;;;3.35;2.10;;;;;;;13.08;87.19;97565.69;5045294;28;20511;-70
2022/09/07 00:51:04;;;;;;;3.33;2.05;;;;;;;13.13;87.45;97561.78;5045202;28;20521;-71
2022/09/07 00:53:37;;;;;;;4.05;2.25;;;;;;;12.88;88.57;97563.34;5045929;28;20053;-72
2022/09/07 00:56:05;;;;;;;5.05;2.08;;;;;;;12.57;89.10;97533.81;5045378;28;20511;-71
2022/09/07 00:58:34;;;;;;;5.68;2.28;;;;;;;12.76;89.55;97550.41;5044451;28;20057;-72
2022/09/07 01:01:02;;;;;;;2.95;1.88;;;;;;;12.74;88.09;97515.84;5045422;28;20506;-72
2022/09/07 01:03:34;;;;;;;3.65;2.17;;;;;;;12.94;88.03;97551.53;5045648;28;20045;-72
2022/09/07 01:06:10;;;;;;;5.05;1.73;;;;;;;12.88;88.53;97546.66;5043620;28;20504;-71
2022/09/07 01:08:37;;;;;;;6.13;2.15;;;;;;;12.94;88.33;97554.31;5044751;28;20056;-71
2022/09/07 01:11:05;;;;;;;5.10;2.67;;;;;;;12.30;88.08;97465.47;5043666;28;20053;-71
2022/09/07 01:13:31;;;;;;;4.68;2.45;;;;;;;12.70;88.12;97513.00;5005777;28;20050;-72
2022/09/07 01:16:05;;;;;;;4.80;2.03;;;;;;;13.01;87.80;97546.09;5004215;28;20160;-71
2022/09/07 01:18:37;;;;;;;;;;;;;;;13.02;87.75;97546.91;5006181;28;20124;-71
2022/09/07 01:21:24;;;;;;;3.30;2.00;;;;;;;12.92;87.38;97541.94;5005616;28;19925;-71
2022/09/07 01:24:05;;;;;;;4.35;2.15;;;;;;;12.80;88.14;97545.75;5005444;28;20068;-71
2022/09/07 01:26:42;;;;;;;4.45;2.00;;;;;;;12.77;88.12;97540.91;5005453;28;20065;-71
2022/09/07 01:29:37;;;;;;;6.40;2.38;;;;;;;12.06;88.67;97449.22;5004017;28;20089;-70
2022/09/07 01:32:24;;;;;;;3.28;1.95;;;;;;;12.69;89.29;97544.75;5005201;28;20068;-71
2022/09/07 01:34:53;;;;;;;3.80;1.73;;;;;;;12.68;90.21;97551.47;5005700;28;20054;-69
2022/09/07 01:37:29;;;;;;;3.08;1.80;;;;;;;12.68;89.67;97557.03;5005313;28;20057;-71
2022/09/07 01:40:25;;;;;;;4.25;2.20;;;;;;;12.72;89.11;97554.31;5005255;28;20096;-71
2022/09/07 01:43:01;;;;;;;5.40;2.20;;;;;;;12.57;90.46;97547.72;4996813;28;20062;-72
2022/09/07 01:45:32;;;;;;;4.65;2.10;;;;;;;12.03;91.30;97483.25;5003245;28;20050;-70
2022/09/07 01:48:05;;;;;;;3.13;1.98;;;;;;;12.57;91.49;97542.16;5004918;28;20469;-71
2022/09/07 01:50:39;;;;;;;2.83;1.90;;;;;;;12.59;91.11;97548.16;5004532;28;20487;-71
2022/09/07 01:53:26;;;;;;;5.65;2.97;;;;;;;12.48;89.91;97516.59;5004675;28;20060;-70
2022/09/07 01:56:00;;;;;;;4.38;2.65;;;;;;;12.54;90.26;97517.91;5004755;28;20057;-71
2022/09/07 01:58:33;;;;;;;6.25;3.30;;;;;;;12.25;90.08;97468.56;5005126;28;20141;-72
2022/09/07 02:01:06;;;;;;;5.47;4.45;;;;;;;12.79;89.54;97533.00;5003440;28;20069;-70
2022/09/07 02:03:50;;;;;;;5.63;3.92;;;;;;;12.74;90.10;97530.53;5004745;28;20444;-73
2022/09/07 02:06:28;;;;;;;5.93;4.07;;;;;;;12.67;90.94;97529.63;5004879;28;20064;-68
2022/09/07 02:08:59;;;;;;;3.42;2.30;;;;;;;12.47;90.15;97487.19;5003178;28;20108;-73
2022/09/07 02:11:36;;;;;;;5.80;2.58;;;;;;;12.54;91.46;97520.66;5008173;28;20054;-70
2022/09/07 02:14:22;;;;;;;6.03;2.47;;;;;;;12.64;91.59;97533.13;5044365;28;20056;-73
2022/09/07 02:16:59;;;;;;;4.60;2.35;;;;;;;12.57;90.92;97514.38;5044621;28;20061;-71
2022/09/07 02:19:29;;;;;;;3.75;2.30;;;;;;;12.64;90.38;97524.81;5044344;28;20053;-72
2022/09/07 02:21:59;;;;;;;4.82;2.25;;;;;;;12.48;91.78;97516.59;5047380;28;20045;-73
2022/09/07 02:24:34;;;;;;;6.20;2.20;;;;;;;9.46;91.50;97039.53;5046945;28;20053;-69
2022/09/07 02:27:11;;;;;;;5.45;2.25;;;;;;;12.34;93.18;97519.13;5048322;28;20052;-72
2022/09/07 02:29:38;;;;;;;4.60;1.75;;;;;;;12.16;93.17;97504.13;5048411;28;20052;-73
2022/09/07 02:32:05;;;;;;;4.60;1.92;;;;;;;12.38;92.55;97522.75;5048288;28;20064;-72
2022/09/07 02:34:32;;;;;;;4.65;2.25;;;;;;;12.32;93.26;97517.88;5048333;28;20061;-72
2022/09/07 02:37:01;;;;;;;7.15;2.03;;;;;;;12.34;93.04;97513.59;5046727;28;20144;-72
2022/09/07 02:39:28;;;;;;;7.28;2.88;;;;;;;12.40;92.63;97512.09;5046718;28;20048;-72
2022/09/07 02:41:55;;;;;;;7.45;2.65;;;;;;;11.86;91.65;97428.19;5046517;28;20144;-74
2022/09/07 02:44:26;;;;;;;3.35;2.13;;;;;;;12.41;91.17;97516.47;5048018;28;20061;-70
2022/09/07 02:47:11;;;;;;;5.07;2.30;;;;;;;12.40;90.61;97514.88;5047617;28;20044;-70
2022/09/07 02:49:50;;;;;;;4.35;2.30;;;;;;;12.33;91.13;97517.50;5047875;28;20053;-72
2022/09/07 02:52:17;;;;;;;3.08;1.98;;;;;;;12.29;91.45;97513.88;5046775;28;20064;-72
2022/09/07 02:54:44;;;;;;;6.90;2.72;;;;;;;12.14;92.91;97520.34;5046256;28;20053;-72
2022/09/07 02:57:16;;;;;;;5.30;2.25;;;;;;;11.99;94.20;97510.97;5032102;28;20076;-71
2022/09/07 03:00:04;;;;;;;2.93;1.97;;;;;;;12.04;95.36;97520.97;5047742;28;20049;-72
2022/09/07 03:02:49;;;;;;;3.17;2.17;;;;;;;12.02;95.27;97520.53;5047780;28;20144;-73
2022/09/07 03:05:35;;;;;;;4.38;2.28;;;;;;;12.03;95.17;97524.88;5047748;28;20086;-72
2022/09/07 03:08:14;;;;;;;3.75;2.75;;;;;;;11.94;96.15;97524.34;5047600;28;20044;-72
2022/09/07 03:10:42;;;;;;;6.75;2.45;;;;;;;11.73;95.62;97463.66;5047194;28;20065;-70
2022/09/07 03:13:22;;;;;;;3.50;2.33;;;;;;;12.04;96.45;97518.19;5030908;28;20057;-72
2022/09/07 03:15:49;;;;;;;4.78;2.53;;;;;;;12.01;95.70;97513.38;5027334;28;20053;-71
2022/09/07 03:18:22;;;;;;;2.97;2.10;;;;;;;11.42;95.32;97418.63;5025921;28;20602;-70
2022/09/07 03:20:49;;;;;;;3.33;2.35;;;;;;;11.85;95.39;97493.22;5025881;28;20114;-70
2022/09/07 03:23:15;;;;;;;2.53;2.10;;;;;;;12.04;94.40;97518.19;5027241;28;20049;-71
2022/09/07 03:25:42;;;;;;;3.75;2.53;;;;;;;11.96;94.88;97517.25;5027227;28;20072;-70
2022/09/07 03:28:09;;;;;;;4.50;2.88;;;;;;;11.79;94.11;97489.16;5027265;28;20491;-73
2022/09/07 03:30:41;;;;;;;5.60;2.85;;;;;;;11.53;94.39;97464.00;5025704;28;20049;-70
2022/09/07 03:33:09;;;;;;;4.07;2.67;;;;;;;11.93;94.77;97529.06;5025163;28;20111;-71
2022/09/07 03:35:36;;;;;;;7.03;2.78;;;;;;;11.92;95.61;97532.22;5025728;28;20060;-73
2022/09/07 03:38:03;;;;;;;3.97;2.70;;;;;;;11.67;96.45;97492.88;5026929;28;20056;-71
2022/09/07 03:40:29;;;;;;;5.65;2.67;;;;;;;11.93;95.75;97526.28;5026526;28;20512;-70
2022/09/07 03:42:56;;;;;;;5.38;2.60;;;;;;;11.80;97.33;97524.06;5026961;28;20049;-70
2022/09/07 03:45:23;;;;;;;7.30;2.63;;;;;;;11.93;97.80;97533.84;5026842;28;20069;-70
2022/09/07 03:47:50;;;;;;;6.43;3.13;;;;;;;10.05;96.82;97227.31;5024937;28;20057;-71
2022/09/07 03:50:17;;;;;;;4.18;2.40;;;;;;;12.02;97.44;97528.84;5026840;28;20053;-72
2022/09/07 03:52:43;;;;;;;5.97;2.47;;;;;;;12.11;96.41;97534.97;5026336;28;20516;-72
2022/09/07 03:55:10;;;;;;;4.82;2.40;;;;;;;11.56;95.23;97435.53;5026464;28;20057;-73
2022/09/07 03:57:37;;;;;;;5.07;3.45;;;;;;;12.13;94.84;97546.50;5025469;28;20049;-71
2022/09/07 04:00:05;;;;;;;7.43;4.30;;;;;;;12.17;95.08;97539.84;5026797;28;20500;-73
2022/09/07 04:02:32;;;;;;;7.20;4.95;;;;;;;12.18;94.20;97540.66;5025033;28;20081;-74
2022/09/07 04:04:59;;;;;;;11.75;5.22;;;;;;;11.90;92.39;97495.72;5026674;28;20482;-70
2022/09/07 04:07:25;;;;;;;6.80;5.13;;;;;;;11.94;92.02;97496.56;5026308;28;20050;-73
2022/09/07 04:09:52;;;;;;;8.57;4.90;;;;;;;12.08;92.16;97522.63;5026229;28;20057;-72
2022/09/07 04:12:19;;;;;;;6.25;4.28;;;;;;;12.06;92.26;97499.19;5035175;28;20048;-70
2022/09/07 04:14:45;;;;;;;5.95;3.72;;;;;;;12.48;92.04;97543.56;5044722;28;20049;-73
2022/09/07 04:17:12;;;;;;;4.63;2.80;;;;;;;12.48;92.29;97555.50;5045982;28;20118;-73
2022/09/07 04:19:39;;;;;;;4.97;2.65;;;;;;;12.33;92.11;97514.72;5046364;28;20060;-71
2022/09/07 04:22:06;;;;;;;4.88;2.75;;;;;;;12.54;92.50;97558.75;5045990;28;20057;-70
2022/09/07 04:24:32;;;;;;;5.35;3.45;;;;;;;12.54;92.69;97548.47;5045937;28;20049;-71
2022/09/07 04:27:00;;;;;;;8.25;2.97;;;;;;;12.64;92.47;97558.97;5045910;28;20057;-70
2022/09/07 04:29:27;;;;;;;7.88;3.08;;;;;;;12.32;92.34;97484.56;5046044;28;20060;-72
2022/09/07 04:31:54;;;;;;;5.60;2.65;;;;;;;12.81;91.74;97557.66;5046088;28;20098;-70
2022/09/07 04:34:20;;;;;;;4.05;2.70;;;;;;;12.47;92.32;97525.31;5045880;28;20403;-71
2022/09/07 04:36:47;;;;;;;3.67;2.53;;;;;;;12.80;91.65;97567.97;5045833;28;20060;-71
2022/09/07 04:39:14;;;;;;;10.05;2.85;;;;;;;12.81;91.62;97569.56;5045595;28;20053;-71
2022/09/07 04:41:41;;;;;;;5.85;3.30;;;;;;;12.87;91.64;97573.66;5041281;28;20057;-71
2022/09/07 04:44:09;;;;;;;5.18;2.85;;;;;;;13.03;91.25;97577.13;5044704;28;20626;-71
2022/09/07 04:46:42;;;;;;;6.15;2.95;;;;;;;13.36;89.82;97568.88;5045308;28;20057;-70
2022/09/07 04:49:10;;;;;;;6.00;2.40;;;;;;;12.87;89.17;97473.56;5043428;28;20057;-70
2022/09/07 04:51:38;;;;;;;10.63;3.03;;;;;;;13.59;88.24;97566.81;5045311;28;20064;-69
2022/09/07 04:54:05;;;;;;;7.25;2.58;;;;;;;13.51;87.31;97548.41;5045157;28;20055;-69
2022/09/07 04:56:32;;;;;;;6.32;2.60;;;;;;;13.72;86.86;97572.16;5045270;28;20144;-69
2022/09/07 04:59:00;;;;;;;11.23;2.70;;;;;;;13.79;86.19;97569.47;5045137;28;20056;-71
2022/09/07 05:01:28;;;;;;;6.55;3.00;;;;;;;13.91;86.55;97572.00;5043489;28;20914;-71
2022/09/07 05:03:55;;;;;;;5.18;3.33;;;;;;;13.95;86.17;97572.84;5045282;28;20136;-71
2022/09/07 05:06:22;;;;;;;7.30;3.20;;;;;;;13.75;86.20;97529.63;5045090;28;20057;-70
2022/09/07 05:08:52;;;;;;;10.45;3.60;;;;;;;14.15;85.61;97575.09;5045085;28;20439;-69
2022/09/07 05:11:21;;;;;;;7.00;3.28;;;;;;;14.12;84.67;97536.03;5044740;28;20056;-70
2022/09/07 05:14:00;;;;;;;10.88;2.88;;;;;;;14.58;82.43;97568.81;5024751;28;20071;-71
2022/09/07 05:16:27;;;;;;;10.32;3.58;;;;;;;14.64;81.79;97583.19;5040385;28;20507;-71
2022/09/07 05:19:00;;;;;;;6.30;3.08;;;;;;;14.70;81.85;97567.75;5025066;28;20053;-70
2022/09/07 05:21:30;;;;;;;7.23;3.30;;;;;;;14.89;80.96;97564.72;5025067;28;20053;-70
2022/09/07 05:23:58;;;;;;;8.13;3.25;;;;;;;14.85;81.20;97549.94;5023141;28;20072;-70
2022/09/07 05:26:27;;;;;;;9.13;2.97;;;;;;;15.14;80.26;97568.50;5024907;28;20053;-70
2022/09/07 05:28:54;;;;;;;4.30;2.83;;;;;;;15.30;79.01;97559.84;5024018;28;20457;-70
2022/09/07 05:31:41;;;;;;;5.53;3.30;;;;;;;15.40;78.26;97571.09;5024650;28;20053;-70
2022/09/07 05:34:08;;;;;;;10.07;3.70;;;;;;;14.70;77.70;97456.97;5024550;28;20363;-71
2022/09/07 05:36:55;;;;;;;8.30;3.40;;;;;;;15.14;77.27;97484.78;5024271;28;20053;-71
2022/09/07 05:39:22;;;;;;;8.00;3.25;;;;;;;15.84;77.35;97568.97;5024227;28;20436;-70
2022/09/07 05:41:49;;;;;;;6.38;3.85;;;;;;;16.06;76.40;97569.88;5022820;28;20504;-71
2022/09/07 05:44:16;;;;;;;9.68;3.35;;;;;;;16.12;76.00;97557.91;5024537;28;20068;-71
2022/09/07 05:47:02;;;;;;;9.63;3.38;;;;;;;16.34;75.44;97562.38;5023976;28;20049;-70
2022/09/07 05:49:29;;;;;;;4.57;3.25;;;;;;;16.13;73.61;97503.63;5024683;28;20061;-69
2022/09/07 05:51:56;;;;;;;9.10;3.63;;;;;;;15.00;73.66;97317.31;5017179;28;20897;-63
2022/09/07 05:54:23;;;;;;;8.05;3.63;;;;;;;16.72;74.02;97563.69;5010633;28;20057;-66
2022/09/07 05:56:49;;;;;;;23.42;4.40;;;;;;;16.90;73.50;97558.13;5004367;28;20057;-67
2022/09/07 05:59:16;;;;;;;7.50;3.78;;;;;;;16.00;71.79;97409.34;5029631;28;20049;-63
2022/09/07 06:01:43;;;;;;;10.07;4.63;;;;;;;17.08;71.77;97558.91;5022051;28;20080;-72
2022/09/07 06:04:10;;;;;;;6.80;3.95;;;;;;;17.20;71.63;97550.13;5016441;28;20100;-62
2022/09/07 06:06:39;;;;;;;6.47;4.05;;;;;;;17.13;71.09;97499.72;5020518;28;20045;-64
2022/09/07 06:09:06;;;;;;;8.93;3.85;;;;;;;16.81;70.81;97470.94;5023223;28;20053;-66
2022/09/07 06:11:33;;;;;;;12.23;4.05;;;;;;;17.04;70.11;97474.13;5022191;28;20523;-63
2022/09/07 06:14:00;;;;;;;9.30;3.58;;;;;;;16.83;69.21;97407.81;5017862;28;20058;-67
2022/09/07 06:16:26;;;;;;;6.65;3.83;;;;;;;17.17;68.72;97427.69;5005560;28;20050;-68
2022/09/07 06:18:53;;;;;;;7.60;3.90;;;;;;;17.36;68.34;97418.84;5018330;28;20050;-63
2022/09/07 06:21:22;;;;;;;9.20;3.33;;;;;;;17.89;67.27;97481.91;5002536;28;20049;-67
2022/09/07 06:23:50;;;;;;;5.72;3.97;;;;;;;18.44;66.96;97546.56;5003192;28;20053;-67
2022/09/07 06:26:18;;;;;;;12.10;5.68;;;;;;;18.56;66.52;97537.66;5004916;28;20064;-64
2022/09/07 06:28:47;;;;;;;12.57;4.75;;;;;;;18.16;66.09;97444.91;5004391;28;20098;-63
2022/09/07 06:31:21;;;;;;;10.63;3.70;;;;;;;18.97;65.81;97538.56;5002830;28;20058;-65
2022/09/07 06:33:50;;;;;;;6.55;3.35;;;;;;;17.91;64.23;97358.16;5002570;28;20062;-70
2022/09/07 06:36:19;;;;;;;6.93;2.92;;;;;;;19.16;64.46;97540.81;5004940;28;20053;-65
2022/09/07 06:38:48;;;;;;;3.53;2.67;;;;;;;19.27;63.99;97537.91;5004223;28;20049;-61
2022/09/07 06:41:23;;;;;;;9.25;3.10;;;;;;;18.42;63.80;97375.03;5008514;28;20049;-64
2022/09/07 06:44:11;;;;;;;7.55;2.75;;;;;;;19.24;63.16;97488.97;5009127;28;20574;-65
2022/09/07 06:46:38;;;;;;;6.35;2.85;;;;;;;19.17;62.92;97466.56;5006850;28;20096;-65
2022/09/07 06:49:25;;;;;;;4.65;2.80;;;;;;;19.31;63.14;97483.31;5003103;28;20076;-68
2022/09/07 06:51:52;;;;;;;8.18;2.63;;;;;;;18.87;62.77;97379.44;5003894;28;20409;-64
2022/09/07 06:54:18;;;;;;;4.78;2.60;;;;;;;19.97;62.22;97533.56;5003819;28;20508;-67
2022/09/07 06:57:07;;;;;;;5.18;2.22;;;;;;;19.93;61.85;97513.16;5003622;28;20117;-66
2022/09/07 06:59:36;;;;;;;5.65;2.47;;;;;;;19.40;61.61;97440.66;5004891;28;20245;-67
2022/09/07 07:02:04;;;;;;;4.60;2.22;;;;;;;19.71;61.21;97506.19;5013263;28;20056;-61
2022/09/07 07:04:31;;;;;;;9.25;3.42;;;;;;;20.24;60.26;97534.47;5023831;28;20115;-68
2022/09/07 07:07:08;;;;;;;5.25;2.72;;;;;;;20.46;60.34;97530.16;5024851;28;20049;-61
2022/09/07 07:09:35;;;;;;;3.42;2.10;;;;;;;20.31;56.67;97517.50;5027598;28;20540;-60
2022/09/07 07:12:02;;;;;;;4.80;3.45;;;;;;;20.61;55.51;97537.19;5026144;28;20055;-64
2022/09/07 07:14:29;;;;;;;8.07;2.88;;;;;;;20.63;54.59;97510.19;5025240;28;20053;-66
2022/09/07 07:17:00;;;;;;;4.43;3.42;;;;;;;20.87;54.20;97525.91;5025482;28;20045;-63
2022/09/07 07:19:27;;;;;;;2.80;2.20;;;;;;;21.16;53.47;97540.38;5012523;28;20050;-63
2022/09/07 07:21:54;;;;;;;7.10;3.35;;;;;;;21.20;52.69;97535.47;5005963;28;20547;-63
2022/09/07 07:24:40;;;;;;;6.22;2.60;;;;;;;20.80;52.45;97460.47;5009027;28;20116;-70
2022/09/07 07:27:07;;;;;;;5.25;2.47;;;;;;;20.22;52.51;97373.72;5007207;28;20085;-69
2022/09/07 07:29:34;;;;;;;4.20;2.72;;;;;;;20.15;54.37;97458.25;5014328;28;20069;-68
2022/09/07 07:32:01;;;;;;;4.38;2.30;;;;;;;19.89;53.21;97399.91;5024874;28;20083;-62
2022/09/07 07:34:28;;;;;;;4.30;2.22;;;;;;;20.72;52.71;97521.72;5019573;28;20058;-61
2022/09/07 07:36:54;;;;;;;3.40;1.90;;;;;;;20.73;52.47;97505.63;5006984;28;20072;-73
2022/09/07 07:39:21;;;;;;;3.20;2.22;;;;;;;21.09;51.04;97489.75;5007531;28;20057;-65
2022/09/07 07:42:08;;;;;;;4.50;2.08;;;;;;;20.83;51.33;97432.22;5007214;28;20057;-68
2022/09/07 07:44:34;;;;;;;3.10;2.13;;;;;;;20.45;51.04;97320.28;5007192;28;20070;-65
2022/09/07 07:47:01;;;;;;;4.43;2.42;;;;;;;21.53;50.58;97432.97;5010899;28;20045;-67
2022/09/07 07:49:28;;;;;;;4.03;2.10;;;;;;;21.84;48.81;97417.47;5008648;28;20202;-60
2022/09/07 07:51:55;;;;;;;4.22;2.88;;;;;;;22.74;48.47;97525.16;5022023;28;20136;-64
2022/09/07 07:54:42;;;;;;;5.90;2.55;;;;;;;22.65;48.75;97539.09;5014043;28;20053;-60
2022/09/07 07:57:09;;;;;;;3.88;2.33;;;;;;;22.72;47.81;97533.28;5021438;28;20133;-66
2022/09/07 07:59:36;;;;;;;5.15;2.78;;;;;;;22.75;48.26;97535.22;5007483;28;20046;-63
2022/09/07 08:02:04;;;;;;;8.23;2.80;;;;;;;22.86;46.77;97532.97;5020642;28;20073;-65
2022/09/07 08:04:34;;;;;;;5.70;2.47;;;;;;;22.65;46.61;97482.63;5017024;28;20107;-63
2022/09/07 08:07:02;;;;;;;4.72;2.10;;;;;;;22.82;46.52;97509.66;5024182;28;20141;-64
2022/09/07 08:09:39;;;;;;;5.32;2.72;;;;;;;22.48;46.32;97434.56;5018348;28;20049;-60
2022/09/07 08:12:08;;;;;;;4.85;3.00;;;;;;;23.14;46.00;97526.63;5005109;28;20054;-62
2022/09/07 08:14:39;;;;;;;3.55;2.78;;;;;;;22.56;45.83;97400.53;5005070;28;20092;-67
2022/09/07 08:17:08;;;;;;;5.03;2.97;;;;;;;23.45;44.64;97513.75;5008522;28;20060;-66
2022/09/07 08:19:35;;;;;;;3.30;2.63;;;;;;;23.28;45.24;97527.13;5005280;28;20081;-61
2022/09/07 08:22:02;;;;;;;3.95;2.72;;;;;;;;;;5011319;28;20152;-68
2022/09/07 08:24:30;;;;;;;3.92;2.72;;;;;;;23.45;45.87;97511.72;5008568;28;20078;-66
2022/09/07 08:26:57;;;;;;;5.68;2.30;;;;;;;22.93;45.26;97414.13;5005948;28;20054;-66
2022/09/07 08:29:24;;;;;;;6.05;2.60;;;;;;;23.66;45.13;97507.53;5006238;28;20119;-64
2022/09/07 08:31:50;;;;;;;6.32;2.80;;;;;;;22.77;44.91;97400.00;5007157;28;20143;-72
2022/09/07 08:34:17;;;;;;;4.40;2.88;;;;;;;23.27;45.03;97445.53;5004448;28;20061;-73
2022/09/07 08:36:44;;;;;;;5.07;2.78;;;;;;;23.05;44.49;97400.06;5006367;28;20207;-63
2022/09/07 08:39:10;;;;;;;4.80;2.75;;;;;;;23.80;44.32;97501.47;5012334;28;20128;-63
2022/09/07 08:41:40;;;;;;;3.75;2.88;;;;;;;23.77;44.68;97502.38;5006258;28;20544;-62
2022/09/07 08:44:18;;;;;;;5.80;3.25;;;;;;;23.88;44.51;97500.81;5017469;28;20080;-64
2022/09/07 08:47:13;;;;;;;3.15;2.75;;;;;;;23.56;44.83;97497.28;5007558;28;20058;-67
2022/09/07 08:50:00;;;;;;;3.35;2.70;;;;;;;23.39;45.43;97498.56;5013655;28;20080;-65
2022/09/07 08:52:37;;;;;;;6.90;3.45;;;;;;;22.89;45.24;97397.25;5024327;28;20053;-74
2022/09/07 08:55:13;;;;;;;8.60;3.67;;;;;;;23.85;44.78;97486.78;5025460;28;20084;-68
2022/09/07 08:57:46;;;;;;;4.68;3.08;;;;;;;23.05;44.33;97396.44;5025307;28;20089;-62
2022/09/07 09:00:16;;;;;;;5.97;3.30;;;;;;;23.92;44.79;97492.22;5021708;28;20046;-63
2022/09/07 09:02:43;;;;;;;7.30;3.17;;;;;;;23.06;44.62;97386.72;5019347;28;20050;-63
2022/09/07 09:05:49;;;;;;;3.58;2.67;;;;;;;23.85;44.08;97489.63;5004227;28;20836;-65
2022/09/07 09:08:53;;;;;;;5.75;2.97;;;;;;;23.59;44.87;97485.06;5006111;28;20052;-69
2022/09/07 09:11:28;;;;;;;4.63;3.00;;;;;;;23.62;44.22;97438.91;5018552;28;20072;-73
2022/09/07 09:14:09;;;;;;;5.50;2.58;;;;;;;23.98;44.45;97455.72;5024988;28;20108;-60
2022/09/07 09:16:53;;;;;;;4.38;2.78;;;;;;;24.02;43.64;97440.22;5023802;28;20607;-63
2022/09/07 09:19:43;;;;;;;4.03;2.58;;;;;;;23.95;43.34;97426.22;5022593;28;20129;-66
2022/09/07 09:22:16;;;;;;;3.90;3.25;;;;;;;24.16;43.14;97451.13;5000108;28;20120;-70
2022/09/07 09:24:56;;;;;;;4.13;2.97;;;;;;;24.25;43.64;97437.06;5003576;28;20050;-59
2022/09/07 09:27:22;;;;;;;4.30;3.00;;;;;;;24.48;42.95;97430.31;5003643;28;20617;-67
2022/09/07 09:29:49;;;;;;;5.55;2.38;;;;;;;24.33;42.18;97410.13;5004301;28;20049;-68
2022/09/07 09:32:37;;;;;;;3.50;3.03;;;;;;;24.78;42.01;97453.25;5004396;28;20145;-69
2022/09/07 09:35:31;;;;;;;4.60;3.00;;;;;;;24.75;41.86;97439.97;5011946;28;20582;-69
2022/09/07 09:37:58;;;;;;;;;;;;;;;25.08;41.08;97441.28;5012987;28;20516;-62
2022/09/07 09:40:33;;;;;;;3.45;3.15;;;;;;;24.93;41.20;97442.19;5009318;28;19929;-65
2022/09/07 09:43:17;;;;;;;3.10;2.75;;;;;;;24.54;41.32;97369.00;5004853;28;20136;-66
2022/09/07 09:45:47;;;;;;;8.30;3.38;;;;;;;24.41;40.78;97298.19;5002953;28;20085;-63
2022/09/07 09:48:38;;;;;;;3.33;3.03;;;;;;;25.03;41.08;97390.84;5022417;28;20068;-69
2022/09/07 09:51:07;;;;;;;4.25;3.20;;;;;;;24.96;40.44;97357.03;5005308;28;20513;-61
2022/09/07 09:54:05;;;;;;;5.18;3.08;;;;;;;24.90;40.25;97322.03;5004434;28;20057;-61
2022/09/07 09:56:43;;;;;;;4.82;2.95;;;;;;;25.60;39.97;97428.56;5004024;28;20088;-60
2022/09/07 09:59:13;;;;;;;3.88;2.65;;;;;;;25.56;39.80;97422.22;5010204;28;20525;-69
2022/09/07 10:02:23;;;;;;;9.13;3.20;;;;;;;25.62;39.70;97414.72;5002721;28;20045;-64
2022/09/07 10:05:26;;;;;;;6.55;3.65;;;;;;;24.94;39.92;97404.13;5003094;28;20050;-63
2022/09/07 10:07:53;;;;;;;3.80;2.67;;;;;;;24.61;39.71;97354.59;5004494;28;20099;-67
2022/09/07 10:10:20;;;;;;;5.28;2.80;;;;;;;24.06;40.23;97344.66;5004744;28;20485;-66
2022/09/07 10:12:51;;;;;;;5.47;3.08;;;;;;;24.80;40.50;97402.53;5009111;28;20977;-63
2022/09/07 10:15:35;;;;;;;3.72;3.13;;;;;;;25.01;39.58;97342.28;5011556;28;20502;-70
2022/09/07 10:18:17;;;;;;;6.60;2.63;;;;;;;25.04;39.34;97330.03;5012399;28;20124;-62
2022/09/07 10:20:44;;;;;;;3.42;3.00;;;;;;;25.41;38.90;97359.53;5012441;28;20050;-67
2022/09/07 10:23:22;;;;;;;4.88;2.65;;;;;;;25.11;38.42;97301.44;5009420;28;20077;-66
2022/09/07 10:25:49;;;;;;;3.10;2.90;;;;;;;25.67;38.30;97394.25;5024150;28;20057;-60
2022/09/07 10:28:22;;;;;;;4.25;3.80;;;;;;;25.09;38.16;97275.59;5023988;28;20049;-63
2022/09/07 10:31:11;;;;;;;4.60;3.20;;;;;;;25.48;38.60;97398.19;5017932;28;20054;-68
2022/09/07 10:34:25;;;;;;;5.97;3.65;;;;;;;25.48;38.70;97387.66;5004143;28;20112;-64
2022/09/07 10:37:03;;;;;;;6.70;3.20;;;;;;;25.81;37.98;97382.38;4927114;29;20058;-69
2022/09/07 10:39:42;;;;;;;9.02;3.90;;;;;;;24.58;37.97;97183.47;4997250;28;20085;-70
2022/09/07 10:42:21;;;;;;;6.03;3.15;;;;;;;26.02;37.86;97370.25;5007144;28;20046;-67
2022/09/07 10:44:50;;;;;;;3.70;3.40;;;;;;;26.10;38.05;97377.19;5007904;28;20488;-72
2022/09/07 10:47:31;;;;;;;7.10;3.10;;;;;;;26.08;37.77;97380.50;5010634;28;20085;-70
2022/09/07 10:50:22;;;;;;;4.05;3.50;;;;;;;26.23;37.48;97369.38;5008296;28;20050;-64
2022/09/07 10:52:49;;;;;;;6.72;3.30;;;;;;;26.50;36.96;97367.47;5006355;28;20088;-68
2022/09/07 10:55:25;;;;;;;3.50;3.20;;;;;;;26.68;36.77;97361.09;5019057;28;20057;-68
2022/09/07 10:58:13;;;;;;;5.18;3.60;;;;;;;26.73;36.93;97363.28;5027749;28;20072;-72
2022/09/07 11:00:52;;;;;;;5.25;2.85;;;;;;;25.67;36.65;97161.53;5025785;28;20120;-66
2022/09/07 11:03:38;;;;;;;5.22;3.42;;;;;;;26.41;37.06;97370.25;5019709;28;20133;-71
2022/09/07 11:06:24;;;;;;;4.05;3.50;;;;;;;25.81;37.29;97348.31;5008416;28;20069;-71
2022/09/07 11:09:10;;;;;;;3.35;2.47;;;;;;;26.15;36.95;97368.88;5007648;28;20479;-73
2022/09/07 11:11:54;;;;;;;;;;;;;;;26.17;37.14;97357.84;5006199;28;20528;-64
2022/09/07 11:14:32;;;;;;;;;;;;;;;26.63;37.48;97353.94;5034669;28;19967;-65
2022/09/07 11:17:07;;;;;;;8.95;3.08;;;;;;;26.63;35.90;97327.56;5032676;28;19965;-64
2022/09/07 11:20:15;;;;;;;5.38;3.00;;;;;;;26.77;36.53;97307.09;5011949;28;20056;-76
2022/09/07 11:22:46;;;;;;;4.88;3.30;;;;;;;26.79;35.72;97261.94;5003386;28;20049;-69
2022/09/07 11:25:25;;;;;;;3.88;3.20;;;;;;;26.99;35.80;97329.69;5011124;28;20061;-65
2022/09/07 11:28:01;;;;;;;3.38;3.08;;;;;;;27.09;36.38;97328.44;5007752;28;20066;-62
2022/09/07 11:30:45;;;;;;;3.90;3.58;;;;;;;26.56;35.78;97256.78;5006659;28;20057;-66
2022/09/07 11:33:30;;;;;;;;;;;;;;;27.19;36.02;97322.28;5027013;28;20046;-62
2022/09/07 11:36:04;;;;;;;4.63;3.08;;;;;;;27.12;37.37;97328.31;5015630;28;20371;-71
2022/09/07 11:38:51;;;;;;;4.18;3.78;;;;;;;26.43;37.52;97202.94;5010984;28;20071;-66
2022/09/07 11:41:48;;;;;;;3.78;3.47;;;;;;;27.24;38.22;97330.19;5025095;28;20081;-64
2022/09/07 11:44:23;;;;;;;6.60;3.33;;;;;;;27.34;37.27;97323.28;5023404;28;20504;-64
2022/09/07 11:46:55;;;;;;;3.00;2.80;;;;;;;25.75;37.30;97094.72;5017157;28;20057;-69
2022/09/07 11:49:26;;;;;;;6.72;3.40;;;;;;;27.10;37.24;97330.81;5026615;28;20566;-69
2022/09/07 11:52:33;;;;;;;3.55;3.17;;;;;;;27.13;36.87;97312.81;5010858;28;20046;-73
2022/09/07 11:55:06;;;;;;;4.35;3.15;;;;;;;27.15;36.83;97310.28;5006448;28;20053;-71
2022/09/07 11:58:02;;;;;;;3.47;3.17;;;;;;;27.18;36.95;97303.66;5007149;28;20461;-71
2022/09/07 12:00:51;;;;;;;3.38;3.08;;;;;;;27.26;36.77;97304.13;5004812;28;20137;-68
2022/09/07 12:03:36;;;;;;;3.17;2.88;;;;;;;27.37;36.64;97299.56;5005878;28;20422;-66